Time;durP1;ratioP1;P1;durP2;ratioP2;P2;SDS_P1;SDS_P2;PMS_P1;PMS_P2;Temp;Humidity;BMP_temperature;BMP_pressure;BME280_temperature;BME280_humidity;BME280_pressure;Samples;Min_cycle;Max_cycle;Signal;HPM_P1;HPM_P2
2022/11/10 00:02:15;;;;;;;14.23;6.70;;;11.10;1.00;;;;;;4944081;28;20300;-53
2022/11/10 00:04:40;;;;;;;16.33;6.57;;;11.20;1.00;;;;;;4952405;28;20249;-52
2022/11/10 00:07:06;;;;;;;14.70;5.80;;;11.20;1.00;;;;;;4942800;28;20185;-53
2022/11/10 00:09:31;;;;;;;11.10;6.10;;;11.10;1.00;;;;;;4949188;28;20244;-54
2022/11/10 00:11:57;;;;;;;16.30;6.10;;;11.10;99.90;;;;;;4941724;28;20274;-54
2022/11/10 00:17:09;;;;;;;14.10;6.70;;;11.00;1.00;;;;;;4938488;28;20245;-56
2022/11/10 00:19:34;;;;;;;10.87;6.20;;;10.90;99.90;;;;;;4944712;28;22115;-53
2022/11/10 00:22:01;;;;;;;14.23;6.37;;;10.90;99.90;;;;;;4939115;28;20468;-55
2022/11/10 00:24:27;;;;;;;15.73;7.30;;;10.80;99.90;;;;;;4939755;28;20190;-54
2022/11/10 00:26:54;;;;;;;15.70;7.10;;;10.90;99.90;;;;;;4938927;28;20484;-54
2022/11/10 00:29:20;;;;;;;13.03;7.17;;;10.80;1.00;;;;;;4938030;28;20433;-53
2022/11/10 00:31:46;;;;;;;20.23;7.17;;;10.70;99.90;;;;;;4937319;28;20444;-49
2022/11/10 00:34:14;;;;;;;18.60;7.53;;;10.80;99.90;;;;;;4938048;28;20449;-53
2022/11/10 00:36:40;;;;;;;19.07;7.10;;;10.70;1.00;;;;;;4949248;28;20565;-55
2022/11/10 00:39:06;;;;;;;12.93;6.43;;;10.70;99.90;;;;;;4941914;28;20958;-51
2022/11/10 00:41:31;;;;;;;21.20;7.60;;;10.80;1.00;;;;;;4938693;28;20449;-54
2022/11/10 00:43:57;;;;;;;12.70;7.10;;;10.80;99.90;;;;;;4949955;28;20448;-53
2022/11/10 00:46:23;;;;;;;18.27;7.53;;;10.70;99.90;;;;;;4955066;28;20256;-54
2022/11/10 00:48:48;;;;;;;16.20;6.50;;;10.80;99.90;;;;;;4954914;28;20193;-55
2022/11/10 00:51:26;;;;;;;11.23;6.87;;;10.80;99.90;;;;;;4955223;28;20232;-53
2022/11/10 00:53:52;;;;;;;16.87;6.70;;;10.80;70.10;;;;;;4955125;28;20632;-53
2022/11/10 00:56:18;;;;;;;11.83;6.53;;;10.70;1.00;;;;;;4946898;28;20507;-54
2022/11/10 00:58:44;;;;;;;11.60;6.03;;;10.70;1.00;;;;;;4946772;28;20484;-54
2022/11/10 01:01:10;;;;;;;12.60;6.37;;;10.70;1.00;;;;;;4948883;28;21200;-53
2022/11/10 01:03:36;;;;;;;11.47;6.17;;;10.70;1.00;;;;;;4954662;28;20465;-54
2022/11/10 01:06:09;;;;;;;20.10;6.83;;;10.60;1.00;;;;;;4954511;28;20425;-54
2022/11/10 01:08:36;;;;;;;16.20;6.80;;;10.60;94.50;;;;;;4954847;28;20170;-54
2022/11/10 01:11:03;;;;;;;12.50;6.40;;;10.60;99.90;;;;;;4954863;28;21160;-54
2022/11/10 01:13:30;;;;;;;10.83;6.50;;;10.50;99.90;;;;;;4949567;28;20465;-54
2022/11/10 01:15:55;;;;;;;18.40;6.80;;;10.50;1.00;;;;;;4954653;28;20902;-53
2022/11/10 01:18:21;;;;;;;18.30;6.00;;;10.50;1.00;;;;;;4954523;28;20429;-56
2022/11/10 01:20:51;;;;;;;13.60;6.17;;;10.50;99.90;;;;;;4947014;28;20209;-54
2022/11/10 01:23:16;;;;;;;18.27;6.40;;;10.40;99.90;;;;;;4941423;28;20229;-53
2022/11/10 01:25:42;;;;;;;11.00;6.10;;;10.40;99.90;;;;;;4937612;28;20800;-54
2022/11/10 01:28:08;;;;;;;16.23;6.17;;;10.40;99.90;;;;;;4948603;28;20201;-54
2022/11/10 01:30:34;;;;;;;13.70;6.70;;;10.40;99.90;;;;;;4938692;28;20449;-54
2022/11/10 01:32:59;;;;;;;15.27;6.10;;;10.30;99.90;;;;;;4937054;28;20538;-54
2022/11/10 01:35:25;;;;;;;13.10;6.30;;;10.20;1.00;;;;;;4949249;29;20198;-54
2022/11/10 01:37:51;;;;;;;15.03;6.43;;;10.30;1.00;;;;;;4942076;28;20232;-53
2022/11/10 01:40:18;;;;;;;16.13;6.17;;;10.30;1.00;;;;;;4937620;28;20195;-54
2022/11/10 01:42:53;;;;;;;18.90;6.40;;;10.20;1.00;;;;;;4937169;28;20487;-54
2022/11/10 01:45:21;;;;;;;10.90;5.67;;;10.20;7.00;;;;;;4942336;28;20476;-54
2022/11/10 01:48:02;;;;;;;22.37;6.10;;;10.10;32.90;;;;;;4940278;28;20492;-54
2022/11/10 01:50:32;;;;;;;16.93;6.63;;;10.00;99.90;;;;;;4938956;28;20445;-54
2022/11/10 01:53:02;;;;;;;15.13;5.43;;;10.00;99.90;;;;;;4937370;28;20456;-54
2022/11/10 01:55:29;;;;;;;16.40;6.30;;;10.00;99.90;;;;;;4936748;28;20445;-55
2022/11/10 01:57:56;;;;;;;12.03;5.73;;;10.00;1.00;;;;;;4936539;28;20567;-54
2022/11/10 02:00:22;;;;;;;11.07;5.57;;;10.00;1.00;;;;;;4937236;28;20453;-55
2022/11/10 02:03:27;;;;;;;14.33;5.13;;;10.00;1.00;;;;;;4936868;28;20543;-54
2022/11/10 02:05:54;;;;;;;15.57;6.13;;;9.90;1.00;;;;;;4954114;28;20452;-50
2022/11/10 02:08:21;;;;;;;11.90;5.23;;;9.90;1.00;;;;;;4941426;28;20458;-54
2022/11/10 02:10:46;;;;;;;17.67;4.87;;;10.00;1.00;;;;;;4936915;28;21093;-54
2022/11/10 02:13:12;;;;;;;12.93;5.90;;;9.90;1.00;;;;;;4938121;28;20545;-55
2022/11/10 02:15:38;;;;;;;10.07;4.93;;;9.90;1.00;;;;;;4936256;28;20205;-53
2022/11/10 02:18:04;;;;;;;21.00;6.20;;;9.90;1.00;;;;;;4941057;28;20320;-54
2022/11/10 02:20:30;;;;;;;14.87;5.50;;;9.90;1.00;;;;;;4937903;28;20539;-54
2022/11/10 02:22:55;;;;;;;16.13;5.97;;;9.80;1.00;;;;;;4942287;28;20205;-55
2022/11/10 02:25:24;;;;;;;16.60;5.43;;;9.80;1.00;;;;;;4937186;28;20198;-54
2022/11/10 02:27:49;;;;;;;13.40;5.93;;;9.90;1.00;;;;;;4936600;28;20193;-54
2022/11/10 02:30:15;;;;;;;10.80;6.60;;;9.90;1.00;;;;;;4936860;28;20536;-54
2022/11/10 02:32:41;;;;;;;22.23;6.70;;;9.80;1.00;;;;;;4936560;28;20206;-51
2022/11/10 02:35:07;;;;;;;23.73;7.23;;;9.80;1.00;;;;;;4936053;28;20210;-54
2022/11/10 02:37:33;;;;;;;16.77;6.80;;;9.80;1.00;;;;;;4936718;28;20224;-53
2022/11/10 02:39:58;;;;;;;15.93;7.40;;;9.80;1.00;;;;;;4936319;28;20445;-53
2022/11/10 02:42:24;;;;;;;22.33;7.53;;;9.80;1.00;;;;;;4937013;28;20213;-54
2022/11/10 02:44:50;;;;;;;15.73;7.57;;;9.70;1.00;;;;;;4950159;28;20193;-54
2022/11/10 02:47:16;;;;;;;16.07;7.87;;;9.70;1.00;;;;;;4939897;28;20244;-54
2022/11/10 02:49:43;;;;;;;28.40;8.53;;;9.70;1.00;;;;;;4943087;28;20197;-54
2022/11/10 02:52:10;;;;;;;16.83;8.10;;;9.70;1.00;;;;;;4937093;28;20935;-54
2022/11/10 02:54:35;;;;;;;22.93;8.40;;;9.60;1.00;;;;;;4935486;28;20621;-54
2022/11/10 02:57:01;;;;;;;16.30;7.50;;;9.60;1.00;;;;;;4937539;28;20448;-55
2022/11/10 02:59:27;;;;;;;22.30;9.83;;;9.60;25.00;;;;;;4947165;28;20684;-54
2022/11/10 03:01:53;;;;;;;18.07;9.07;;;9.60;85.00;;;;;;4931921;28;20528;-54
2022/11/10 03:04:19;;;;;;;16.33;8.30;;;9.60;99.90;;;;;;4935602;28;20194;-53
2022/11/10 03:06:45;;;;;;;20.70;7.80;;;9.60;99.90;;;;;;4935617;28;20204;-55
2022/11/10 03:09:10;;;;;;;20.70;8.70;;;9.60;99.90;;;;;;4940606;28;20808;-55
2022/11/10 03:11:36;;;;;;;22.80;8.63;;;9.60;99.90;;;;;;4935375;28;21098;-55
2022/11/10 03:14:02;;;;;;;19.10;9.10;;;9.50;99.90;;;;;;4937552;28;20332;-54
2022/11/10 03:16:28;;;;;;;14.53;9.23;;;9.50;99.90;;;;;;4935978;28;20194;-54
2022/11/10 03:18:54;;;;;;;20.03;9.40;;;9.50;99.90;;;;;;4938859;28;20437;-54
2022/11/10 03:21:19;;;;;;;23.30;9.00;;;9.50;99.90;;;;;;4934970;28;20457;-54
2022/11/10 03:23:45;;;;;;;21.40;10.13;;;9.40;99.90;;;;;;4936164;28;20256;-55
2022/11/10 03:26:10;;;;;;;18.97;9.83;;;9.30;99.90;;;;;;4935109;28;20276;-55
2022/11/10 03:28:36;;;;;;;19.70;10.77;;;9.30;99.90;;;;;;4935536;28;20275;-54
2022/11/10 03:31:01;;;;;;;27.43;11.30;;;9.30;99.90;;;;;;4935745;28;20202;-54
2022/11/10 03:33:27;;;;;;;21.60;10.83;;;9.40;99.90;;;;;;4935497;28;20221;-54
2022/11/10 03:35:52;;;;;;;23.13;12.10;;;9.40;99.90;;;;;;4935400;28;20318;-55
2022/11/10 03:38:19;;;;;;;32.87;11.43;;;9.50;99.90;;;;;;4935467;28;20342;-54
2022/11/10 03:40:44;;;;;;;20.47;11.80;;;9.40;99.90;;;;;;4935598;28;20205;-55
2022/11/10 03:43:11;;;;;;;21.43;11.03;;;9.40;99.90;;;;;;4937185;28;21000;-55
2022/11/10 03:45:36;;;;;;;25.43;12.00;;;9.40;99.90;;;;;;4945581;28;20202;-54
2022/11/10 03:48:02;;;;;;;23.73;11.67;;;9.40;99.90;;;;;;4952376;28;20507;-54
2022/11/10 03:50:28;;;;;;;21.37;10.30;;;9.40;99.90;;;;;;4944031;28;20228;-54
2022/11/10 03:52:53;;;;;;;25.10;11.43;;;9.40;99.90;;;;;;4939303;28;20197;-54
2022/11/10 03:55:19;;;;;;;23.10;12.13;;;9.40;99.90;;;;;;4949282;28;20635;-54
2022/11/10 03:57:45;;;;;;;29.10;12.00;;;9.40;99.90;;;;;;4955224;28;20520;-51
2022/11/10 04:00:12;;;;;;;24.63;12.27;;;9.50;99.90;;;;;;4954538;28;20235;-54
2022/11/10 04:02:38;;;;;;;30.87;12.50;;;9.50;99.90;;;;;;4953615;28;20241;-54
2022/11/10 04:10:44;;;;;;;26.80;14.53;;;9.60;99.90;;;;;;4956175;29;20967;-54
2022/11/10 04:15:54;;;;;;;30.13;14.97;;;9.60;99.90;;;;;;4956085;29;20193;-54
2022/11/10 04:18:22;;;;;;;31.57;14.17;;;9.60;99.90;;;;;;4955140;28;20818;-56
2022/11/10 04:20:48;;;;;;;27.13;14.60;;;9.60;99.90;;;;;;4954446;29;20217;-55
2022/11/10 04:23:27;;;;;;;30.83;14.70;;;9.60;99.90;;;;;;4955042;28;20487;-55
2022/11/10 04:28:47;;;;;;;36.93;15.20;;;9.60;99.90;;;;;;4954857;28;20480;-54
2022/11/10 04:31:15;;;;;;;35.07;16.40;;;9.60;99.90;;;;;;4954304;29;20410;-54
2022/11/10 04:33:41;;;;;;;30.47;15.70;;;9.60;99.90;;;;;;4954797;28;20456;-54
2022/11/10 04:36:07;;;;;;;31.60;17.03;;;9.60;99.90;;;;;;4950081;28;20963;-52
2022/11/10 04:38:33;;;;;;;30.40;17.90;;;9.70;99.90;;;;;;4954857;28;20540;-55
2022/11/10 04:40:59;;;;;;;37.13;18.00;;;9.70;99.90;;;;;;4955117;28;20540;-54
2022/11/10 04:43:25;;;;;;;31.20;18.17;;;9.70;99.90;;;;;;4955134;28;20216;-54
2022/11/10 04:45:50;;;;;;;34.70;17.90;;;9.80;99.90;;;;;;4950811;28;20604;-50
2022/11/10 04:48:16;;;;;;;41.03;19.00;;;9.80;99.90;;;;;;4955170;29;20201;-54
2022/11/10 04:50:42;;;;;;;39.70;19.13;;;9.80;99.90;;;;;;4953635;28;20193;-54
2022/11/10 04:53:07;;;;;;;50.87;21.33;;;9.90;99.90;;;;;;4955072;28;20174;-54
2022/11/10 04:55:33;;;;;;;40.63;19.80;;;9.90;99.90;;;;;;4954324;28;20194;-54
2022/11/10 04:57:59;;;;;;;34.90;20.43;;;9.90;99.90;;;;;;4955094;28;20682;-54
2022/11/10 05:00:24;;;;;;;41.13;20.93;;;10.00;99.90;;;;;;4954319;28;20194;-54
2022/11/10 05:02:50;;;;;;;41.50;20.60;;;10.00;99.90;;;;;;4954710;28;20245;-54
2022/11/10 05:05:15;;;;;;;42.30;20.10;;;10.00;99.90;;;;;;4954250;28;20229;-53
2022/11/10 05:07:41;;;;;;;41.27;20.67;;;10.00;99.90;;;;;;4953338;28;20190;-54
2022/11/10 05:10:07;;;;;;;37.90;19.80;;;10.00;99.90;;;;;;4954288;28;20668;-54
2022/11/10 05:12:33;;;;;;;37.00;20.23;;;10.00;99.90;;;;;;4953820;28;20197;-55
2022/11/10 05:14:58;;;;;;;37.70;20.00;;;10.00;99.90;;;;;;4953949;28;20515;-54
2022/11/10 05:17:24;;;;;;;50.87;22.67;;;10.00;99.90;;;;;;4952442;28;20245;-54
2022/11/10 05:19:49;;;;;;;49.13;21.53;;;10.00;99.90;;;;;;4954602;28;20266;-55
2022/11/10 05:22:15;;;;;;;40.20;19.70;;;10.00;99.90;;;;;;4952916;28;20210;-54
2022/11/10 05:24:40;;;;;;;43.43;19.73;;;9.90;99.90;;;;;;4954534;28;20555;-54
2022/11/10 05:27:07;;;;;;;41.73;20.40;;;9.90;99.90;;;;;;4953814;28;20204;-54
2022/11/10 05:29:32;;;;;;;32.70;18.40;;;10.00;99.90;;;;;;4954262;28;20231;-54
2022/11/10 05:31:58;;;;;;;40.00;20.10;;;9.90;99.90;;;;;;4953872;28;20453;-55
2022/11/10 05:34:24;;;;;;;40.27;19.70;;;9.90;99.90;;;;;;4954327;28;20190;-55
2022/11/10 05:36:49;;;;;;;42.23;20.07;;;9.90;99.90;;;;;;4953623;28;20641;-56
2022/11/10 05:39:15;;;;;;;36.10;19.70;;;9.80;99.90;;;;;;4952810;28;20236;-53
2022/11/10 05:41:40;;;;;;;49.50;19.80;;;9.80;99.90;;;;;;4954000;28;20189;-54
2022/11/10 05:44:06;;;;;;;36.30;20.13;;;9.90;99.90;;;;;;4953944;28;20198;-55
2022/11/10 05:46:32;;;;;;;41.47;19.60;;;9.90;99.90;;;;;;4954244;28;20181;-54
2022/11/10 05:48:57;;;;;;;35.80;20.03;;;9.90;99.90;;;;;;4953691;28;20532;-54
2022/11/10 05:51:23;;;;;;;40.17;20.90;;;9.90;99.90;;;;;;4954016;28;20296;-54
2022/11/10 05:53:48;;;;;;;34.47;18.17;;;9.90;99.90;;;;;;4953222;28;20204;-54
2022/11/10 05:56:14;;;;;;;37.97;17.10;;;9.80;99.90;;;;;;4954155;28;20667;-54
2022/11/10 05:58:41;;;;;;;42.47;17.67;;;9.80;99.90;;;;;;4953177;28;20264;-55
2022/11/10 06:01:06;;;;;;;41.30;16.93;;;9.80;99.90;;;;;;4953738;28;20497;-54
2022/11/10 06:03:32;;;;;;;40.57;16.97;;;9.80;99.90;;;;;;4953444;28;20254;-53
2022/11/10 06:05:57;;;;;;;36.87;16.73;;;9.80;99.90;;;;;;4953981;28;20597;-50
2022/11/10 06:08:23;;;;;;;29.80;17.97;;;9.80;99.90;;;;;;4952557;28;20190;-55
2022/11/10 06:10:49;;;;;;;39.67;16.73;;;9.80;99.90;;;;;;4952105;28;20245;-54
2022/11/10 06:13:14;;;;;;;35.63;16.73;;;9.70;99.90;;;;;;4953743;28;20571;-59
2022/11/10 06:15:40;;;;;;;29.60;16.00;;;9.70;99.90;;;;;;4953032;28;20193;-55
2022/11/10 06:18:06;;;;;;;36.63;17.60;;;9.60;99.90;;;;;;4953627;28;20193;-55
2022/11/10 06:20:32;;;;;;;35.13;15.17;;;9.60;99.90;;;;;;4952837;28;20702;-55
2022/11/10 06:23:06;;;;;;;30.73;14.37;;;9.60;99.90;;;;;;4952884;28;20240;-54
2022/11/10 06:25:33;;;;;;;33.17;15.60;;;9.60;99.90;;;;;;4942008;28;20460;-54
2022/11/10 06:28:00;;;;;;;26.10;14.47;;;9.60;99.90;;;;;;4952514;28;20437;-54
2022/11/10 06:30:27;;;;;;;31.07;15.13;;;9.50;99.90;;;;;;4950993;28;20855;-50
2022/11/10 06:32:52;;;;;;;32.37;15.63;;;9.50;99.90;;;;;;4952660;28;20445;-55
2022/11/10 06:35:19;;;;;;;28.63;13.53;;;9.50;99.90;;;;;;4952234;28;20998;-54
2022/11/10 06:37:45;;;;;;;37.70;15.40;;;9.50;99.90;;;;;;4944429;29;20217;-55
2022/11/10 06:40:12;;;;;;;27.00;14.57;;;9.50;99.90;;;;;;4951828;28;20848;-53
2022/11/10 06:42:38;;;;;;;31.67;14.70;;;9.50;99.90;;;;;;4953127;28;20236;-54
2022/11/10 06:45:04;;;;;;;31.10;14.03;;;9.50;99.90;;;;;;4952462;28;20453;-54
2022/11/10 06:47:30;;;;;;;26.63;13.10;;;9.50;99.90;;;;;;4953369;28;21003;-55
2022/11/10 06:49:56;;;;;;;36.10;13.63;;;9.50;99.90;;;;;;4952652;28;20198;-54
2022/11/10 06:52:21;;;;;;;29.93;12.67;;;9.50;99.90;;;;;;4953287;28;20192;-54
2022/11/10 06:54:47;;;;;;;30.47;13.00;;;9.50;99.90;;;;;;4952566;28;20280;-54
2022/11/10 06:57:12;;;;;;;31.93;12.17;;;9.50;99.90;;;;;;4952055;29;20280;-56
2022/11/10 06:59:38;;;;;;;25.80;12.53;;;9.50;99.90;;;;;;4952494;28;20212;-55
2022/11/10 07:02:04;;;;;;;35.70;12.40;;;9.50;99.90;;;;;;4950832;28;20240;-54
2022/11/10 07:04:29;;;;;;;33.70;11.57;;;9.50;99.90;;;;;;4945209;28;20277;-55
2022/11/10 07:06:55;;;;;;;32.93;12.57;;;9.50;99.90;;;;;;4950332;28;20196;-55
2022/11/10 07:09:20;;;;;;;29.40;12.60;;;9.50;99.90;;;;;;4949842;28;20205;-53
2022/11/10 07:11:46;;;;;;;30.77;12.90;;;9.50;99.90;;;;;;4951456;28;20190;-54
2022/11/10 07:14:11;;;;;;;38.83;13.40;;;9.50;99.90;;;;;;4951714;28;20209;-55
2022/11/10 07:16:37;;;;;;;29.47;12.90;;;9.50;99.90;;;;;;4952098;28;20596;-55
2022/11/10 07:19:03;;;;;;;34.60;12.90;;;9.50;99.90;;;;;;4951873;28;20193;-54
2022/11/10 07:21:29;;;;;;;30.00;13.50;;;9.50;99.90;;;;;;4938810;28;20257;-54
2022/11/10 07:23:54;;;;;;;26.30;12.70;;;9.50;99.90;;;;;;4937768;29;20248;-53
2022/11/10 07:26:20;;;;;;;33.13;14.23;;;9.60;99.90;;;;;;4945802;28;20445;-55
2022/11/10 07:28:45;;;;;;;39.87;14.90;;;9.60;99.90;;;;;;4955318;29;20531;-55
2022/11/10 07:31:11;;;;;;;31.27;14.00;;;9.60;99.90;;;;;;4955951;28;20197;-55
2022/11/10 07:33:37;;;;;;;33.03;14.80;;;9.60;99.90;;;;;;4954621;28;20592;-55
2022/11/10 07:36:03;;;;;;;30.80;15.33;;;9.70;99.90;;;;;;4956751;28;20196;-54
2022/11/10 07:38:29;;;;;;;27.43;15.50;;;9.80;99.90;;;;;;4956615;28;20189;-54
2022/11/10 07:40:55;;;;;;;34.70;15.83;;;9.80;99.90;;;;;;4956556;28;20421;-54
2022/11/10 07:43:22;;;;;;;37.93;15.70;;;9.90;99.90;;;;;;4956406;28;20260;-54
2022/11/10 07:45:49;;;;;;;32.60;15.33;;;9.90;99.90;;;;;;4956437;28;20417;-54
2022/11/10 07:48:15;;;;;;;32.67;15.20;;;9.90;99.90;;;;;;4954079;28;20441;-53
2022/11/10 07:50:40;;;;;;;31.33;16.10;;;10.00;99.90;;;;;;4955838;29;20931;-54
2022/11/10 07:53:15;;;;;;;33.43;16.23;;;10.00;99.90;;;;;;4953252;28;20898;-55
2022/11/10 07:55:43;;;;;;;35.33;17.50;;;10.00;99.90;;;;;;4948496;29;20185;-54
2022/11/10 07:58:10;;;;;;;32.70;15.80;;;10.10;99.90;;;;;;4956142;28;20455;-54
2022/11/10 08:00:36;;;;;;;36.53;17.57;;;10.10;99.90;;;;;;4953223;28;20896;-53
2022/11/10 08:03:07;;;;;;;36.90;17.10;;;10.10;99.90;;;;;;4957094;28;20487;-54
2022/11/10 08:05:33;;;;;;;35.53;18.43;;;10.10;99.90;;;;;;4971032;28;20950;-55
2022/11/10 08:07:59;;;;;;;38.20;18.33;;;10.20;99.90;;;;;;4955124;29;20458;-55
2022/11/10 08:10:26;;;;;;;32.93;17.77;;;10.30;99.90;;;;;;4953555;28;20433;-54
2022/11/10 08:12:56;;;;;;;34.87;16.30;;;10.40;99.90;;;;;;4949457;28;20477;-54
2022/11/10 08:15:23;;;;;;;40.97;17.33;;;10.50;99.90;;;;;;4953315;29;20467;-54
2022/11/10 08:17:49;;;;;;;46.37;17.73;;;10.50;44.50;;;;;;4936468;29;20466;-53
2022/11/10 08:20:15;;;;;;;36.30;16.73;;;10.50;19.40;;;;;;4936592;29;20506;-54
2022/11/10 08:22:41;;;;;;;39.07;18.40;;;10.50;1.00;;;;;;4936520;29;20258;-53
2022/11/10 08:25:07;;;;;;;38.20;19.00;;;10.50;1.00;;;;;;4935230;29;20466;-54
2022/11/10 08:27:33;;;;;;;37.47;17.67;;;10.50;4.80;;;;;;4936536;29;20590;-54
2022/11/10 08:29:58;;;;;;;55.43;19.37;;;10.60;19.50;;;;;;4935424;28;20201;-53
2022/11/10 08:32:24;;;;;;;33.33;17.90;;;10.60;21.80;;;;;;4952050;29;21012;-53
2022/11/10 08:34:50;;;;;;;40.63;19.00;;;10.70;18.50;;;;;;4955701;28;20633;-53
2022/11/10 08:37:16;;;;;;;43.17;19.77;;;10.80;4.00;;;;;;4955366;28;20193;-53
2022/11/10 08:39:41;;;;;;;31.30;18.00;;;10.80;1.00;;;;;;4955347;28;20475;-54
2022/11/10 08:42:07;;;;;;;38.23;20.13;;;10.90;1.00;;;;;;4954795;28;20373;-54
2022/11/10 08:44:32;;;;;;;38.43;17.90;;;10.90;1.00;;;;;;4955296;29;20166;-54
2022/11/10 08:46:58;;;;;;;35.47;18.00;;;11.00;1.00;;;;;;4955069;29;20205;-53
2022/11/10 08:49:23;;;;;;;42.83;19.43;;;11.00;1.00;;;;;;4955355;28;20317;-54
2022/11/10 08:51:49;;;;;;;53.10;19.73;;;11.00;1.00;;;;;;4955357;28;20545;-53
2022/11/10 08:54:15;;;;;;;41.93;19.03;;;11.00;1.00;;;;;;4955134;28;20228;-54
2022/11/10 08:56:40;;;;;;;36.10;18.20;;;11.10;1.00;;;;;;4954868;28;20519;-54
2022/11/10 08:59:06;;;;;;;36.43;18.10;;;11.20;1.00;;;;;;4955012;28;20896;-49
2022/11/10 09:01:31;;;;;;;33.03;18.10;;;11.20;1.00;;;;;;4953589;28;20734;-53
2022/11/10 09:03:57;;;;;;;37.70;18.77;;;11.20;1.00;;;;;;4954976;28;20683;-52
2022/11/10 09:06:22;;;;;;;33.83;17.10;;;11.20;1.00;;;;;;4955091;28;20182;-54
2022/11/10 09:08:48;;;;;;;34.20;17.93;;;11.20;1.00;;;;;;4955173;28;20185;-56
2022/11/10 09:11:14;;;;;;;41.57;18.40;;;11.20;1.00;;;;;;4954899;28;20252;-53
2022/11/10 09:13:39;;;;;;;34.00;18.83;;;11.20;1.00;;;;;;4954781;28;20209;-52
2022/11/10 09:16:05;;;;;;;36.57;18.57;;;11.20;1.00;;;;;;4954208;28;20186;-54
2022/11/10 09:18:31;;;;;;;35.77;17.20;;;11.30;1.00;;;;;;4954486;28;20260;-53
2022/11/10 09:20:57;;;;;;;33.57;17.80;;;11.40;1.00;;;;;;4954658;28;20208;-53
2022/11/10 09:23:23;;;;;;;38.03;18.83;;;11.50;99.90;;;;;;4954596;28;20244;-52
2022/11/10 09:25:54;;;;;;;37.07;18.43;;;11.70;99.90;;;;;;4954088;28;20260;-54
2022/11/10 09:28:21;;;;;;;44.03;18.30;;;11.70;99.90;;;;;;4954564;28;21045;-53
2022/11/10 09:30:49;;;;;;;46.20;17.17;;;11.80;99.90;;;;;;4954579;28;20397;-54
2022/11/10 09:33:15;;;;;;;35.20;17.03;;;12.00;58.20;;;;;;4954477;28;20437;-53
2022/11/10 09:35:41;;;;;;;29.10;17.10;;;12.10;1.00;;;;;;4954494;28;20512;-53
2022/11/10 09:38:08;;;;;;;38.03;17.47;;;12.10;99.90;;;;;;4954313;28;20511;-53
2022/11/10 09:41:03;;;;;;;27.43;16.10;;;12.00;97.70;;;;;;4954302;28;20456;-53
2022/11/10 09:43:32;;;;;;;32.57;16.53;;;11.90;99.90;;;;;;4954028;29;20794;-53
2022/11/10 09:46:01;;;;;;;37.80;17.40;;;11.90;1.00;;;;;;4954202;28;20991;-55
2022/11/10 09:48:35;;;;;;;40.77;17.37;;;11.90;1.00;;;;;;4954375;28;20422;-60
2022/11/10 09:51:29;;;;;;;41.20;17.80;;;12.00;1.00;;;;;;4954066;28;20460;-53
2022/11/10 09:54:04;;;;;;;41.03;17.27;;;12.10;99.90;;;;;;4952917;29;20437;-53
2022/11/10 09:56:34;;;;;;;39.20;17.47;;;12.10;1.00;;;;;;4949356;28;20460;-52
2022/11/10 09:59:05;;;;;;;31.50;17.03;;;12.10;99.90;;;;;;4953953;28;20421;-52
2022/11/10 10:01:42;;;;;;;40.23;18.10;;;12.10;99.90;;;;;;4953593;28;20484;-53
2022/11/10 10:04:22;;;;;;;29.17;16.27;;;12.20;1.00;;;;;;4953527;28;20483;-53
2022/11/10 10:06:58;;;;;;;37.00;17.50;;;12.30;1.00;;;;;;4953911;28;20429;-53
2022/11/10 10:09:35;;;;;;;31.77;16.13;;;12.50;11.10;;;;;;4953897;28;20409;-48
2022/11/10 10:12:22;;;;;;;31.53;16.50;;;12.50;1.00;;;;;;4953827;29;20417;-53
2022/11/10 10:15:06;;;;;;;29.20;16.10;;;12.40;99.90;;;;;;4950483;28;20472;-53
2022/11/10 10:17:53;;;;;;;30.17;15.20;;;12.40;99.90;;;;;;4953834;28;20765;-55
2022/11/10 10:20:32;;;;;;;35.53;15.97;;;12.50;99.90;;;;;;4953721;28;20398;-53
2022/11/10 10:23:16;;;;;;;42.43;17.03;;;12.50;1.00;;;;;;4953601;28;20460;-53
2022/11/10 10:25:44;;;;;;;33.13;16.43;;;12.50;1.00;;;;;;4953423;28;20417;-53
2022/11/10 10:28:40;;;;;;;29.67;15.13;;;12.50;99.90;;;;;;4934145;29;20469;-53
2022/11/10 10:31:33;;;;;;;39.70;15.60;;;12.40;1.00;;;;;;4943874;29;20444;-53
2022/11/10 10:33:59;;;;;;;36.93;15.40;;;12.40;1.00;;;;;;4953165;29;20990;-53
2022/11/10 10:36:28;;;;;;;37.10;14.90;;;12.30;1.00;;;;;;4953309;28;20516;-53
2022/11/10 10:38:59;;;;;;;37.60;16.00;;;12.30;1.00;;;;;;4953468;28;20461;-52
2022/11/10 10:41:28;;;;;;;35.03;15.43;;;12.40;1.00;;;;;;4952124;28;20552;-52
2022/11/10 10:43:57;;;;;;;36.47;16.17;;;12.50;1.00;;;;;;4953079;28;20564;-52
2022/11/10 10:46:28;;;;;;;38.67;15.20;;;12.60;1.00;;;;;;4953290;28;20465;-51
2022/11/10 10:49:18;;;;;;;30.03;14.23;;;12.80;99.90;;;;;;4953270;28;20521;-52
2022/11/10 10:51:44;;;;;;;30.00;13.90;;;13.30;99.90;;;;;;4953314;28;20408;-52
2022/11/10 10:54:30;;;;;;;27.23;13.53;;;14.00;96.80;;;;;;4952976;28;20562;-52
2022/11/10 10:57:19;;;;;;;28.47;13.50;;;13.80;6.10;;;;;;4952984;28;20422;-53
2022/11/10 10:59:45;;;;;;;30.70;14.07;;;13.50;21.60;;;;;;4953271;28;21260;-52
2022/11/10 11:02:31;;;;;;;32.73;14.10;;;13.30;63.00;;;;;;4952952;28;20524;-53
2022/11/10 11:05:16;;;;;;;23.50;13.80;;;13.20;89.10;;;;;;4952963;28;20235;-52
2022/11/10 11:07:55;;;;;;;24.03;13.80;;;13.20;98.90;;;;;;4951837;28;20480;-52
2022/11/10 11:10:28;;;;;;;28.27;13.87;;;13.20;99.90;;;;;;4952857;28;20950;-52
2022/11/10 11:12:53;;;;;;;27.97;13.70;;;13.20;96.90;;;;;;4953079;28;20416;-52
2022/11/10 11:15:28;;;;;;;25.50;12.73;;;13.20;99.90;;;;;;4952892;28;20413;-53
2022/11/10 11:17:59;;;;;;;25.37;12.20;;;13.20;99.90;;;;;;4952825;28;20185;-53
2022/11/10 11:20:42;;;;;;;26.57;14.53;;;13.30;97.70;;;;;;4952911;28;20425;-52
2022/11/10 11:23:41;;;;;;;30.27;11.97;;;13.30;66.20;;;;;;4951728;29;20552;-53
2022/11/10 11:26:17;;;;;;;24.90;13.07;;;13.30;47.90;;;;;;4952987;28;20923;-53
2022/11/10 11:29:08;;;;;;;26.30;12.23;;;13.30;39.80;;;;;;4952775;28;20417;-52
2022/11/10 11:31:46;;;;;;;23.83;12.73;;;13.30;58.00;;;;;;4952793;28;20440;-53
2022/11/10 11:34:29;;;;;;;33.30;13.23;;;13.30;44.30;;;;;;4952882;28;20814;-52
2022/11/10 11:37:19;;;;;;;28.57;12.20;;;13.30;47.10;;;;;;4952913;28;20426;-50
2022/11/10 11:39:52;;;;;;;25.30;13.20;;;13.30;40.70;;;;;;4952531;28;20417;-53
2022/11/10 11:42:24;;;;;;;22.57;11.00;;;13.20;60.00;;;;;;4952896;28;20477;-53
2022/11/10 11:45:20;;;;;;;23.80;11.83;;;13.30;69.00;;;;;;4952575;28;20818;-54
2022/11/10 11:48:04;;;;;;;26.67;11.77;;;13.30;41.30;;;;;;4947432;28;20842;-53
2022/11/10 11:50:41;;;;;;;25.50;11.87;;;13.40;32.10;;;;;;4952728;28;20532;-52
2022/11/10 11:53:28;;;;;;;29.50;13.03;;;13.30;8.40;;;;;;4952717;28;20425;-51
2022/11/10 11:56:04;;;;;;;22.40;11.67;;;13.30;14.10;;;;;;4952598;28;20794;-52
2022/11/10 11:59:20;;;;;;;23.80;12.07;;;13.30;19.90;;;;;;4952641;28;20411;-53
2022/11/10 12:01:46;;;;;;;26.40;11.10;;;13.30;13.20;;;;;;4951416;29;20487;-52
2022/11/10 12:04:20;;;;;;;29.67;12.07;;;13.30;3.10;;;;;;4951524;28;20488;-52
2022/11/10 12:07:06;;;;;;;25.43;11.93;;;13.40;1.40;;;;;;4956504;28;20212;-53
2022/11/10 12:09:46;;;;;;;22.70;11.47;;;13.40;4.10;;;;;;4956248;28;20464;-52
2022/11/10 12:12:23;;;;;;;19.87;11.17;;;13.40;1.00;;;;;;4956257;28;20417;-52
2022/11/10 12:15:10;;;;;;;27.03;11.20;;;13.40;1.00;;;;;;4955890;28;20420;-52
2022/11/10 12:17:59;;;;;;;21.13;10.83;;;13.40;1.00;;;;;;4955771;28;20807;-53
2022/11/10 12:20:49;;;;;;;22.23;10.53;;;13.50;1.00;;;;;;4956071;28;20433;-52
2022/11/10 12:23:26;;;;;;;23.87;10.13;;;13.60;1.00;;;;;;4955171;28;20817;-53
2022/11/10 12:25:57;;;;;;;21.57;9.87;;;13.50;1.00;;;;;;4955769;28;20762;-59
2022/11/10 12:28:38;;;;;;;17.07;10.43;;;13.60;1.00;;;;;;4955873;28;20432;-53
2022/11/10 12:31:11;;;;;;;23.17;10.40;;;13.60;1.00;;;;;;4955656;28;20417;-53
2022/11/10 12:33:52;;;;;;;18.80;9.57;;;13.50;1.00;;;;;;4955754;28;20526;-53
2022/11/10 12:36:21;;;;;;;21.33;9.40;;;13.50;1.00;;;;;;4955698;28;20637;-55
2022/11/10 12:39:04;;;;;;;20.77;9.93;;;13.50;1.00;;;;;;4955538;28;20417;-53
2022/11/10 12:41:44;;;;;;;23.63;9.47;;;13.50;1.00;;;;;;4955675;29;20421;-54
2022/11/10 12:44:38;;;;;;;22.00;9.00;;;13.50;1.00;;;;;;4955517;29;20509;-53
2022/11/10 12:47:06;;;;;;;19.97;9.30;;;13.50;1.00;;;;;;4955330;28;20754;-53
2022/11/10 12:49:34;;;;;;;22.33;9.40;;;13.40;1.00;;;;;;4955373;28;20418;-52
2022/11/10 12:52:18;;;;;;;15.80;8.30;;;13.40;1.00;;;;;;4955463;29;20437;-53
2022/11/10 12:54:45;;;;;;;20.30;8.73;;;13.40;1.00;;;;;;4952842;28;20441;-53
2022/11/10 12:57:20;;;;;;;18.97;8.57;;;13.40;1.00;;;;;;4954554;28;20445;-56
2022/11/10 13:00:07;;;;;;;22.27;7.97;;;13.40;1.00;;;;;;4953788;28;20459;-53
2022/11/10 13:02:40;;;;;;;21.87;8.83;;;13.40;1.00;;;;;;4954032;28;20496;-52
2022/11/10 13:05:33;;;;;;;20.70;8.50;;;13.40;1.00;;;;;;4955209;28;20472;-53